首页
METAR-TAF:

METAR-TAF

机场 :

阿尔巴尼, 喬治亞, 美国

纬度: 31-32-08N, 经度: 084-11-40W, 海拔: 60米

当前天气观测

该预报发布于1小时和5分钟前的00:53 UTC
静风
温度 13°C
湿度 77%
气压 1017 hPa
能見度: 16.1公里
阴天层高于3400英尺

METAR: KABY 170053Z AUTO 00000KT 10SM OVC034 13/09 A3004 RMK AO2 SLP172 T01330094

时间: 20:58 (01:58 UTC)

预报

该预报发布于2小时和38分钟前的23:20 UTC
预报有效从17日的 00点(UTC)到 17日的 24点(UTC)
风速4节,风向北转东北
能見度: 10公里
阴天层高于3000英尺
从 17日的 1500点(UTC)
风速7节,风向北转东北
能見度: 10公里
散云层高于3000英尺

TAF: KABY 162320Z 1700/1724 03004KT P6SM OVC030 FM171500 03007KT P6SM SCT030

超过4000个机场的气象观测和天气预报(METAR&TAF报告)。

可查询的气象台以黄色和红色小点在地图上表示。

将鼠标移到小点上方,可查看气象台名称。

然后点击查看天气观测和预报。

如需切换地图:点击带黑十字的绿色按钮放大地图;点击带横线的绿色按钮缩小地图;或者点击绿色箭头查看邻近地区的地图。


METAR-TAF: